createdAt,value
2023-05-17T00:00:52.976Z,11.17
2023-05-17T00:03:20.867Z,11.13
2023-05-17T00:05:48.069Z,11.14
2023-05-17T00:08:15.550Z,11.12
2023-05-17T00:10:43.392Z,11.13
2023-05-17T00:13:10.828Z,11.09
2023-05-17T00:15:40.496Z,11.06
2023-05-17T00:18:07.764Z,11.08
2023-05-17T00:20:35.911Z,11.03
2023-05-17T00:23:03.227Z,11.01
2023-05-17T00:25:30.396Z,11.01
2023-05-17T00:27:57.868Z,11.00
2023-05-17T00:30:24.949Z,10.95
2023-05-17T00:32:55.005Z,10.93
2023-05-17T00:35:22.174Z,10.94
2023-05-17T00:37:49.457Z,10.93
2023-05-17T00:40:16.538Z,10.91
2023-05-17T00:42:43.839Z,10.92
2023-05-17T00:45:11.007Z,10.91
2023-05-17T00:47:38.506Z,10.90
2023-05-17T00:50:05.978Z,10.91
2023-05-17T00:52:33.257Z,10.90
2023-05-17T00:55:03.185Z,10.91
2023-05-17T00:57:32.172Z,10.91
2023-05-17T01:00:01.845Z,10.89
2023-05-17T01:02:29.265Z,10.90
2023-05-17T01:04:56.448Z,10.93
2023-05-17T01:07:23.770Z,10.91
2023-05-17T01:09:50.831Z,10.91
2023-05-17T01:12:36.938Z,10.91
2023-05-17T01:15:19.784Z,10.90
2023-05-17T01:17:56.293Z,10.87
2023-05-17T01:20:30.974Z,10.88
2023-05-17T01:23:01.257Z,10.85
2023-05-17T01:25:40.844Z,10.82
2023-05-17T01:28:08.678Z,10.80
2023-05-17T01:30:37.181Z,10.77
2023-05-17T01:33:04.573Z,10.75
2023-05-17T01:35:31.621Z,10.74
2023-05-17T01:37:58.864Z,10.74
2023-05-17T01:40:26.070Z,10.70
2023-05-17T01:42:57.599Z,10.65
2023-05-17T01:45:26.908Z,10.61
2023-05-17T01:48:06.630Z,10.62
2023-05-17T01:50:34.729Z,10.57
2023-05-17T01:53:01.869Z,10.58
2023-05-17T01:55:48.673Z,10.55
2023-05-17T01:58:16.239Z,10.49
2023-05-17T02:00:46.573Z,10.46
2023-05-17T02:03:20.341Z,10.41
2023-05-17T02:05:54.902Z,10.39
2023-05-17T02:08:22.166Z,10.38
2023-05-17T02:10:48.999Z,10.34
2023-05-17T02:13:16.202Z,10.33
2023-05-17T02:15:44.147Z,10.30
2023-05-17T02:18:11.863Z,10.30
2023-05-17T02:20:41.667Z,10.28
2023-05-17T02:23:11.679Z,10.27
2023-05-17T02:25:40.976Z,10.25
2023-05-17T02:28:08.455Z,10.22
2023-05-17T02:30:35.927Z,10.20
2023-05-17T02:33:03.192Z,10.22
2023-05-17T02:35:30.356Z,10.23
2023-05-17T02:37:57.910Z,10.23
2023-05-17T02:40:24.790Z,10.23
2023-05-17T02:42:51.964Z,10.22
2023-05-17T02:45:21.314Z,10.19
2023-05-17T02:47:48.630Z,10.16
2023-05-17T02:50:15.738Z,10.15
2023-05-17T02:52:42.994Z,10.14
2023-05-17T02:55:09.931Z,10.10
2023-05-17T02:57:37.159Z,10.11
2023-05-17T03:00:04.317Z,10.08
2023-05-17T03:02:31.897Z,10.05
2023-05-17T03:04:59.121Z,9.96
2023-05-17T03:07:26.542Z,9.96
2023-05-17T03:09:54.302Z,9.93
2023-05-17T03:12:21.672Z,9.91
2023-05-17T03:14:49.535Z,9.86
2023-05-17T03:17:16.796Z,9.83
2023-05-17T03:19:44.748Z,9.80
2023-05-17T03:22:11.936Z,9.78
2023-05-17T03:24:39.024Z,9.71
2023-05-17T03:27:06.397Z,9.69
2023-05-17T03:29:33.694Z,9.68
2023-05-17T03:32:01.157Z,9.64
2023-05-17T03:34:28.674Z,9.63
2023-05-17T03:36:56.311Z,9.60
2023-05-17T03:39:23.209Z,9.55
2023-05-17T03:41:51.072Z,9.55
2023-05-17T03:44:18.541Z,9.49
2023-05-17T03:46:46.306Z,9.49
2023-05-17T03:49:14.308Z,9.47
2023-05-17T03:51:41.932Z,9.44
2023-05-17T03:54:08.787Z,9.40
2023-05-17T03:56:35.952Z,9.40
2023-05-17T03:59:02.997Z,9.38
2023-05-17T04:01:31.631Z,9.37
2023-05-17T04:03:58.555Z,9.37
2023-05-17T04:06:28.557Z,9.40
2023-05-17T04:08:55.817Z,9.39
2023-05-17T04:11:26.672Z,9.36
2023-05-17T04:13:55.253Z,9.33
2023-05-17T04:16:22.773Z,9.34
2023-05-17T04:18:52.988Z,9.31
2023-05-17T04:21:20.838Z,9.30
2023-05-17T04:23:48.334Z,9.28
2023-05-17T04:26:19.435Z,9.25
2023-05-17T04:28:48.365Z,9.25
2023-05-17T04:31:17.056Z,9.22
2023-05-17T04:33:46.630Z,9.20
2023-05-17T04:36:13.885Z,9.15
2023-05-17T04:38:42.051Z,9.12
2023-05-17T04:41:12.395Z,9.12
2023-05-17T04:43:40.414Z,9.06
2023-05-17T04:46:13.106Z,9.01
2023-05-17T04:48:40.124Z,9.01
2023-05-17T04:51:09.923Z,8.96
2023-05-17T04:53:37.332Z,8.91
2023-05-17T04:56:12.311Z,8.86
2023-05-17T04:58:41.748Z,8.87
2023-05-17T05:01:09.428Z,8.89
2023-05-17T05:03:39.065Z,8.84
2023-05-17T05:06:14.183Z,8.82
2023-05-17T05:08:41.897Z,8.78
2023-05-17T05:11:11.712Z,8.75
2023-05-17T05:13:39.157Z,8.75
2023-05-17T05:16:07.559Z,8.75
2023-05-17T05:18:35.830Z,8.69
2023-05-17T05:21:03.764Z,8.67
2023-05-17T05:23:33.529Z,8.68
2023-05-17T05:26:03.248Z,8.66
2023-05-17T05:28:30.444Z,8.66
2023-05-17T05:31:01.215Z,8.62
2023-05-17T05:33:35.056Z,8.60
2023-05-17T05:36:02.619Z,8.58
2023-05-17T05:38:29.573Z,8.60
2023-05-17T05:40:57.367Z,8.59
2023-05-17T05:43:26.550Z,8.60
2023-05-17T05:45:54.028Z,8.59
2023-05-17T05:48:22.280Z,8.57
2023-05-17T05:50:49.603Z,8.54
2023-05-17T05:53:19.473Z,8.61
2023-05-17T05:55:55.525Z,8.56
2023-05-17T05:58:22.509Z,8.57
2023-05-17T06:00:53.422Z,8.57
2023-05-17T06:03:20.367Z,8.58
2023-05-17T06:05:48.523Z,8.61
2023-05-17T06:08:15.507Z,8.58
2023-05-17T06:10:42.706Z,8.58
2023-05-17T06:13:09.662Z,8.59
2023-05-17T06:15:39.229Z,8.60
2023-05-17T06:18:08.591Z,8.57
2023-05-17T06:20:35.886Z,8.59
2023-05-17T06:23:05.133Z,8.61
2023-05-17T06:25:32.526Z,8.61
2023-05-17T06:27:59.504Z,8.63
2023-05-17T06:30:27.949Z,8.66
2023-05-17T06:32:55.100Z,8.67
2023-05-17T06:35:22.408Z,8.69
2023-05-17T06:37:49.361Z,8.69
2023-05-17T06:40:17.259Z,8.70
2023-05-17T06:42:46.635Z,8.70
2023-05-17T06:45:14.373Z,8.74
2023-05-17T06:47:41.548Z,8.74
2023-05-17T06:50:09.835Z,8.76
2023-05-17T06:52:36.836Z,8.79
2023-05-17T06:55:04.192Z,8.75
2023-05-17T06:57:31.221Z,8.75
2023-05-17T06:59:58.465Z,8.76
2023-05-17T07:02:25.489Z,8.75
2023-05-17T07:04:52.895Z,8.72
2023-05-17T07:07:19.887Z,8.68
2023-05-17T07:09:47.153Z,8.69
2023-05-17T07:12:14.121Z,8.73
2023-05-17T07:14:41.407Z,8.74
2023-05-17T07:17:08.351Z,8.74
2023-05-17T07:19:36.076Z,8.78
2023-05-17T07:22:03.179Z,8.82
2023-05-17T07:24:30.642Z,8.84
2023-05-17T07:27:00.256Z,8.87
2023-05-17T07:29:29.859Z,8.86
2023-05-17T07:31:56.852Z,8.99
2023-05-17T07:34:24.318Z,9.03
2023-05-17T07:36:51.270Z,9.00
2023-05-17T07:39:21.115Z,9.10
2023-05-17T07:41:48.047Z,9.06
2023-05-17T07:44:15.398Z,9.09
2023-05-17T07:46:42.685Z,9.10
2023-05-17T07:49:10.050Z,9.08
2023-05-17T07:51:37.415Z,9.12
2023-05-17T07:54:04.719Z,9.06
2023-05-17T07:56:32.133Z,9.14
2023-05-17T07:58:59.778Z,9.23
2023-05-17T08:01:26.936Z,9.24
2023-05-17T08:03:56.704Z,9.20
2023-05-17T08:06:23.626Z,9.23
2023-05-17T08:08:51.271Z,9.25
2023-05-17T08:11:18.661Z,9.16
2023-05-17T08:13:47.069Z,9.17
2023-05-17T08:16:14.890Z,9.20
2023-05-17T08:18:43.458Z,9.23
2023-05-17T08:21:11.422Z,9.33
2023-05-17T08:23:39.111Z,9.38
2023-05-17T08:26:06.254Z,9.57
2023-05-17T08:28:36.114Z,9.55
2023-05-17T08:31:04.268Z,9.63
2023-05-17T08:33:34.509Z,9.59
2023-05-17T08:36:03.036Z,9.56
2023-05-17T08:38:30.479Z,9.51
2023-05-17T08:40:58.769Z,9.63
2023-05-17T08:43:27.802Z,9.72
2023-05-17T08:45:57.954Z,9.68
2023-05-17T08:48:31.398Z,9.67
2023-05-17T08:51:01.052Z,9.68
2023-05-17T08:53:28.795Z,9.64
2023-05-17T08:56:00.700Z,9.81
2023-05-17T08:58:32.477Z,9.85
2023-05-17T09:01:03.377Z,9.94
2023-05-17T09:03:32.339Z,10.10
2023-05-17T09:06:02.270Z,10.08
2023-05-17T09:08:30.287Z,10.01
2023-05-17T09:10:59.481Z,9.89
2023-05-17T09:13:26.861Z,9.84
2023-05-17T09:15:54.563Z,9.72
2023-05-17T09:18:29.305Z,9.66
2023-05-17T09:20:56.387Z,9.63
2023-05-17T09:23:23.764Z,9.62
2023-05-17T09:25:50.895Z,9.61
2023-05-17T09:28:20.423Z,9.49
2023-05-17T09:30:49.455Z,9.50
2023-05-17T09:33:18.776Z,9.49
2023-05-17T09:35:46.036Z,9.44
2023-05-17T09:38:13.923Z,9.41
2023-05-17T09:40:44.818Z,9.41
2023-05-17T09:43:12.705Z,9.46
2023-05-17T09:45:39.622Z,9.54
2023-05-17T09:48:17.407Z,9.56
2023-05-17T09:50:51.355Z,9.67
2023-05-17T09:53:32.597Z,9.68
2023-05-17T09:56:00.680Z,9.69
2023-05-17T09:58:29.197Z,9.67
2023-05-17T10:00:59.048Z,9.66
2023-05-17T10:03:34.409Z,9.58
2023-05-17T10:06:04.042Z,9.57
2023-05-17T10:08:34.810Z,9.53
2023-05-17T10:11:09.831Z,9.43
2023-05-17T10:13:40.970Z,9.47
2023-05-17T10:16:08.069Z,9.45
2023-05-17T10:18:38.389Z,9.42
2023-05-17T10:21:06.705Z,9.41
2023-05-17T10:23:34.623Z,9.29
2023-05-17T10:26:02.237Z,9.30
2023-05-17T10:28:30.338Z,9.25
2023-05-17T10:30:57.711Z,9.25
2023-05-17T10:33:27.326Z,9.28
2023-05-17T10:35:56.109Z,9.19
2023-05-17T10:38:31.876Z,9.22
2023-05-17T10:41:03.041Z,9.21
2023-05-17T10:43:31.959Z,9.23
2023-05-17T10:46:00.347Z,9.21
2023-05-17T10:48:29.076Z,9.22
2023-05-17T10:51:01.920Z,9.20
2023-05-17T10:53:29.408Z,9.31
2023-05-17T10:55:56.693Z,9.29
2023-05-17T10:58:26.731Z,9.29
2023-05-17T11:00:55.979Z,9.29
2023-05-17T11:03:26.708Z,9.33
2023-05-17T11:06:19.434Z,9.40
2023-05-17T11:09:07.069Z,9.36
2023-05-17T11:11:34.533Z,9.44
2023-05-17T11:14:03.794Z,9.46
2023-05-17T11:16:37.548Z,9.48
2023-05-17T11:19:12.054Z,9.47
2023-05-17T11:21:48.264Z,9.54
2023-05-17T11:24:26.893Z,9.45
2023-05-17T11:26:57.683Z,9.45
2023-05-17T11:29:28.972Z,9.47
2023-05-17T11:31:56.046Z,9.51
2023-05-17T11:34:25.593Z,9.53
2023-05-17T11:36:54.398Z,9.44
2023-05-17T11:39:22.737Z,9.45
2023-05-17T11:41:51.375Z,9.38
2023-05-17T11:44:25.346Z,9.35
2023-05-17T11:46:53.338Z,9.29
2023-05-17T11:49:34.254Z,9.22
2023-05-17T11:52:02.978Z,9.17
2023-05-17T11:54:32.938Z,9.13
2023-05-17T11:57:00.597Z,9.12
2023-05-17T11:59:27.830Z,9.12
2023-05-17T12:01:55.028Z,9.13
2023-05-17T12:04:26.038Z,9.10
2023-05-17T12:06:53.722Z,9.10
2023-05-17T12:09:22.469Z,9.07
2023-05-17T12:11:51.812Z,9.07
2023-05-17T12:14:21.910Z,9.13
2023-05-17T12:16:56.271Z,9.17
2023-05-17T12:19:25.120Z,9.16
2023-05-17T12:21:53.524Z,9.23
2023-05-17T12:24:20.714Z,9.22
2023-05-17T12:26:48.143Z,9.27
2023-05-17T12:29:19.418Z,9.29
2023-05-17T12:31:50.927Z,9.34
2023-05-17T12:34:18.602Z,9.34
2023-05-17T12:36:47.539Z,9.29
2023-05-17T12:39:15.568Z,9.28
2023-05-17T12:41:47.830Z,9.30
2023-05-17T12:44:16.705Z,9.26
2023-05-17T12:46:54.167Z,9.30
2023-05-17T12:49:22.209Z,9.33
2023-05-17T12:51:51.542Z,9.37
2023-05-17T12:54:28.690Z,9.41
2023-05-17T12:56:57.965Z,9.46
2023-05-17T12:59:26.083Z,9.45
2023-05-17T13:01:57.768Z,9.38
2023-05-17T13:04:32.814Z,9.44
2023-05-17T13:07:01.281Z,9.40
2023-05-17T13:09:31.117Z,9.44
2023-05-17T13:11:59.730Z,9.51
2023-05-17T13:14:33.024Z,9.56
2023-05-17T13:17:01.475Z,9.60
2023-05-17T13:19:28.847Z,9.59
2023-05-17T13:21:55.995Z,9.53
2023-05-17T13:24:30.875Z,9.53
2023-05-17T13:26:57.801Z,9.50
2023-05-17T13:29:38.001Z,9.44
2023-05-17T13:32:06.295Z,9.42
2023-05-17T13:34:33.566Z,9.35
2023-05-17T13:37:00.577Z,9.33
2023-05-17T13:39:27.836Z,9.30
2023-05-17T13:41:54.783Z,9.26
2023-05-17T13:44:22.361Z,9.23
2023-05-17T13:46:51.993Z,9.29
2023-05-17T13:49:19.383Z,9.34
2023-05-17T13:51:46.383Z,9.40
2023-05-17T13:54:13.602Z,9.45
2023-05-17T13:56:40.659Z,9.55
2023-05-17T13:59:07.930Z,9.60
2023-05-17T14:01:35.598Z,9.63
2023-05-17T14:04:02.918Z,9.70
2023-05-17T14:06:32.424Z,9.79
2023-05-17T14:09:00.915Z,9.71
2023-05-17T14:11:27.926Z,9.63
2023-05-17T14:13:55.633Z,9.67
2023-05-17T14:16:23.017Z,9.63
2023-05-17T14:18:50.736Z,9.61
2023-05-17T14:21:20.227Z,9.70
2023-05-17T14:23:47.505Z,9.79
2023-05-17T14:26:15.535Z,9.75
2023-05-17T14:28:43.275Z,9.70
2023-05-17T14:31:10.950Z,9.63
2023-05-17T14:33:38.208Z,9.65
2023-05-17T14:36:05.286Z,9.64
2023-05-17T14:38:32.693Z,9.69
2023-05-17T14:41:01.201Z,9.70
2023-05-17T14:43:28.839Z,9.71
2023-05-17T14:45:55.912Z,9.73
2023-05-17T14:48:23.462Z,9.67
2023-05-17T14:50:51.488Z,9.66
2023-05-17T14:53:19.362Z,9.61
2023-05-17T14:55:46.343Z,9.58
2023-05-17T14:58:13.809Z,9.60
2023-05-17T15:00:42.056Z,9.55
2023-05-17T15:03:10.486Z,9.50
2023-05-17T15:05:38.831Z,9.50
2023-05-17T15:08:06.768Z,9.47
2023-05-17T15:10:37.473Z,9.46
2023-05-17T15:13:04.769Z,9.52
2023-05-17T15:15:32.905Z,9.51
2023-05-17T15:18:00.765Z,9.49
2023-05-17T15:20:27.824Z,9.48
2023-05-17T15:22:55.091Z,9.47
2023-05-17T15:25:22.164Z,9.41
2023-05-17T15:27:49.963Z,9.36
2023-05-17T15:30:17.123Z,9.38
2023-05-17T15:32:44.840Z,9.32
2023-05-17T15:35:11.928Z,9.33
2023-05-17T15:37:39.191Z,9.27
2023-05-17T15:40:07.335Z,9.30
2023-05-17T15:42:34.602Z,9.29
2023-05-17T15:45:01.685Z,9.30
2023-05-17T15:47:42.383Z,9.29
2023-05-17T15:50:10.827Z,9.30
2023-05-17T15:52:39.491Z,9.31
2023-05-17T15:55:09.765Z,9.30
2023-05-17T15:57:37.005Z,9.35
2023-05-17T16:00:04.529Z,9.34
2023-05-17T16:02:33.288Z,9.36
2023-05-17T16:05:02.808Z,9.38
2023-05-17T16:07:31.445Z,9.38
2023-05-17T16:09:58.483Z,9.38
2023-05-17T16:12:25.746Z,9.37
2023-05-17T16:14:52.711Z,9.40
2023-05-17T16:17:22.252Z,9.43
2023-05-17T16:19:51.811Z,9.42
2023-05-17T16:22:19.202Z,9.47
2023-05-17T16:24:46.276Z,9.46
2023-05-17T16:27:13.630Z,9.45
2023-05-17T16:29:40.636Z,9.45
2023-05-17T16:32:08.550Z,9.43
2023-05-17T16:34:35.875Z,9.43
2023-05-17T16:37:04.838Z,9.44
2023-05-17T16:39:32.602Z,9.41
2023-05-17T16:42:00.070Z,9.44
2023-05-17T16:44:27.017Z,9.44
2023-05-17T16:46:54.390Z,9.46
2023-05-17T16:49:21.421Z,9.45
2023-05-17T16:51:52.374Z,9.45
2023-05-17T16:54:19.318Z,9.47
2023-05-17T16:56:46.587Z,9.44
2023-05-17T16:59:13.571Z,9.46
2023-05-17T17:01:40.897Z,9.47
2023-05-17T17:04:08.247Z,9.46
2023-05-17T17:06:35.604Z,9.44
2023-05-17T17:09:07.802Z,9.45
2023-05-17T17:11:35.367Z,9.47
2023-05-17T17:14:02.291Z,9.48
2023-05-17T17:16:29.868Z,9.47
2023-05-17T17:18:56.941Z,9.44
2023-05-17T17:21:24.666Z,9.45
2023-05-17T17:23:51.953Z,9.46
2023-05-17T17:26:19.487Z,9.41
2023-05-17T17:28:46.605Z,9.40
2023-05-17T17:31:13.909Z,9.42
2023-05-17T17:33:40.980Z,9.37
2023-05-17T17:36:09.427Z,9.35
2023-05-17T17:38:36.500Z,9.31
2023-05-17T17:41:03.934Z,9.33
2023-05-17T17:43:30.904Z,9.33
2023-05-17T17:45:58.085Z,9.32
2023-05-17T17:48:25.734Z,9.29
2023-05-17T17:50:55.743Z,9.25
2023-05-17T17:53:23.389Z,9.24
2023-05-17T17:55:50.780Z,9.22
2023-05-17T17:58:18.217Z,9.16
2023-05-17T18:00:48.445Z,9.15
2023-05-17T18:03:15.654Z,9.09
2023-05-17T18:05:43.302Z,9.10
2023-05-17T18:08:10.253Z,9.11
2023-05-17T18:10:37.611Z,9.09
2023-05-17T18:13:05.164Z,9.05
2023-05-17T18:15:32.411Z,8.99
2023-05-17T18:17:59.402Z,8.97
2023-05-17T18:20:26.725Z,8.94
2023-05-17T18:22:53.932Z,8.93
2023-05-17T18:25:21.467Z,8.89
2023-05-17T18:27:48.358Z,8.85
2023-05-17T18:30:17.430Z,8.84
2023-05-17T18:32:46.892Z,8.86
2023-05-17T18:35:14.396Z,8.82
2023-05-17T18:37:41.414Z,8.80
2023-05-17T18:40:09.582Z,8.81
2023-05-17T18:42:36.636Z,8.76
2023-05-17T18:45:04.638Z,8.79
2023-05-17T18:47:31.845Z,8.74
2023-05-17T18:49:59.758Z,8.75
2023-05-17T18:52:29.181Z,8.72
2023-05-17T18:54:59.732Z,8.72
2023-05-17T18:57:27.092Z,8.71
2023-05-17T18:59:55.254Z,8.72
2023-05-17T19:02:22.856Z,8.71
2023-05-17T19:04:52.552Z,8.73
2023-05-17T19:07:20.352Z,8.73
2023-05-17T19:09:48.371Z,8.75
2023-05-17T19:12:15.765Z,8.74
2023-05-17T19:14:45.705Z,8.75
2023-05-17T19:17:13.700Z,8.75
2023-05-17T19:19:41.133Z,8.76
2023-05-17T19:22:11.152Z,8.74
2023-05-17T19:24:38.582Z,8.74
2023-05-17T19:27:07.714Z,8.78
2023-05-17T19:29:35.548Z,8.76
2023-05-17T19:32:03.172Z,8.76
2023-05-17T19:34:34.000Z,8.75
2023-05-17T19:37:01.405Z,8.77
2023-05-17T19:39:29.077Z,8.80
2023-05-17T19:41:56.269Z,8.81
2023-05-17T19:44:25.421Z,8.81
2023-05-17T19:46:55.582Z,8.81
2023-05-17T19:49:23.351Z,8.81
2023-05-17T19:51:50.758Z,8.83
2023-05-17T19:54:18.284Z,8.80
2023-05-17T19:56:46.560Z,8.80
2023-05-17T19:59:15.044Z,8.79
2023-05-17T20:01:44.986Z,8.77
2023-05-17T20:04:12.847Z,8.78
2023-05-17T20:06:40.538Z,8.79
2023-05-17T20:09:11.728Z,8.81
2023-05-17T20:11:41.500Z,8.79
2023-05-17T20:14:10.283Z,8.82
2023-05-17T20:16:37.574Z,8.79
2023-05-17T20:19:05.773Z,8.81
2023-05-17T20:21:33.099Z,8.81
2023-05-17T20:24:06.853Z,8.80
2023-05-17T20:26:37.826Z,8.81
2023-05-17T20:29:08.619Z,8.80
2023-05-17T20:31:36.526Z,8.84
2023-05-17T20:34:04.805Z,8.86
2023-05-17T20:36:31.809Z,8.84
2023-05-17T20:38:59.115Z,8.84
2023-05-17T20:41:28.114Z,8.84
2023-05-17T20:43:57.814Z,8.84
2023-05-17T20:46:25.029Z,8.86
2023-05-17T20:48:53.716Z,8.83
2023-05-17T20:51:22.455Z,8.87
2023-05-17T20:53:50.038Z,8.85
2023-05-17T20:56:19.407Z,8.85
2023-05-17T20:58:49.070Z,8.82
2023-05-17T21:01:16.149Z,8.87
2023-05-17T21:03:43.900Z,8.82
2023-05-17T21:06:11.441Z,8.83
2023-05-17T21:08:39.040Z,8.83
2023-05-17T21:11:06.060Z,8.81
2023-05-17T21:13:33.282Z,8.87
2023-05-17T21:16:00.481Z,8.82
2023-05-17T21:18:28.335Z,8.79
2023-05-17T21:20:57.549Z,8.77
2023-05-17T21:23:25.280Z,8.77
2023-05-17T21:25:52.224Z,8.79
2023-05-17T21:28:19.412Z,8.80
2023-05-17T21:30:46.511Z,8.77
2023-05-17T21:33:13.853Z,8.78
2023-05-17T21:35:40.902Z,8.73
2023-05-17T21:38:08.272Z,8.70
2023-05-17T21:40:35.439Z,8.70
2023-05-17T21:43:02.778Z,8.70
2023-05-17T21:45:29.823Z,8.72
2023-05-17T21:47:57.068Z,8.71
2023-05-17T21:50:26.469Z,8.70
2023-05-17T21:52:53.745Z,8.68
2023-05-17T21:55:20.815Z,8.68
2023-05-17T21:57:48.060Z,8.69
2023-05-17T22:00:15.536Z,8.68
2023-05-17T22:02:46.658Z,8.72
2023-05-17T22:05:13.685Z,8.73
2023-05-17T22:07:41.158Z,8.74
2023-05-17T22:10:10.485Z,8.74
2023-05-17T22:12:38.513Z,8.75
2023-05-17T22:15:05.835Z,8.75
2023-05-17T22:17:47.075Z,8.72
2023-05-17T22:20:17.128Z,8.77
2023-05-17T22:22:44.384Z,8.75
2023-05-17T22:25:11.619Z,8.72
2023-05-17T22:27:38.844Z,8.72
2023-05-17T22:30:06.553Z,8.72
2023-05-17T22:32:33.863Z,8.69
2023-05-17T22:35:00.792Z,8.71
2023-05-17T22:37:30.384Z,8.70
2023-05-17T22:39:57.245Z,8.70
2023-05-17T22:42:24.460Z,8.69
2023-05-17T22:44:51.430Z,8.70
2023-05-17T22:47:22.842Z,8.69
2023-05-17T22:49:52.625Z,8.71
2023-05-17T22:52:20.199Z,8.70
2023-05-17T22:54:47.280Z,8.70
2023-05-17T22:57:14.503Z,8.70
2023-05-17T22:59:44.113Z,8.69
2023-05-17T23:02:14.352Z,8.69
2023-05-17T23:04:41.398Z,8.68
2023-05-17T23:07:09.993Z,8.71
2023-05-17T23:09:40.763Z,8.73
2023-05-17T23:12:08.913Z,8.75
2023-05-17T23:14:36.447Z,8.76
2023-05-17T23:17:04.533Z,8.78
2023-05-17T23:19:32.414Z,8.78
2023-05-17T23:22:02.991Z,8.81
2023-05-17T23:24:29.988Z,8.79
2023-05-17T23:26:57.808Z,8.77
2023-05-17T23:29:26.122Z,8.80
2023-05-17T23:31:53.610Z,8.76
2023-05-17T23:34:21.109Z,8.79
2023-05-17T23:36:48.433Z,8.75
2023-05-17T23:39:15.757Z,8.73
2023-05-17T23:41:43.144Z,8.74
2023-05-17T23:44:10.216Z,8.72
2023-05-17T23:46:39.722Z,8.74
2023-05-17T23:49:06.948Z,8.73
2023-05-17T23:51:34.935Z,8.72
2023-05-17T23:54:04.654Z,8.68
2023-05-17T23:56:34.241Z,8.67
2023-05-17T23:59:01.109Z,8.69
